sensor_id;sensor_type;location;lat;lon;timestamp;P1;durP1;ratioP1;P2;durP2;ratioP2
82288;SDS011;71889;39.264;-120.910;2024-02-26T00:00:43;5.63;;;1.65;;
82288;SDS011;71889;39.264;-120.910;2024-02-26T00:03:32;1.77;;;0.90;;
82288;SDS011;71889;39.264;-120.910;2024-02-26T00:06:21;4.30;;;1.10;;
82288;SDS011;71889;39.264;-120.910;2024-02-26T00:09:08;6.30;;;3.22;;
82288;SDS011;71889;39.264;-120.910;2024-02-26T00:11:55;3.22;;;1.08;;
82288;SDS011;71889;39.264;-120.910;2024-02-26T00:14:43;2.05;;;0.93;;
82288;SDS011;71889;39.264;-120.910;2024-02-26T00:17:31;1.20;;;0.85;;
82288;SDS011;71889;39.264;-120.910;2024-02-26T00:20:18;3.15;;;1.67;;
82288;SDS011;71889;39.264;-120.910;2024-02-26T00:23:05;2.97;;;1.50;;
82288;SDS011;71889;39.264;-120.910;2024-02-26T00:25:52;8.20;;;3.75;;
82288;SDS011;71889;39.264;-120.910;2024-02-26T00:28:39;6.03;;;2.70;;
82288;SDS011;71889;39.264;-120.910;2024-02-26T00:31:26;3.30;;;1.60;;
82288;SDS011;71889;39.264;-120.910;2024-02-26T00:34:13;17.48;;;8.63;;
82288;SDS011;71889;39.264;-120.910;2024-02-26T00:37:01;5.90;;;3.33;;
82288;SDS011;71889;39.264;-120.910;2024-02-26T00:39:48;3.65;;;1.38;;
82288;SDS011;71889;39.264;-120.910;2024-02-26T00:42:35;3.03;;;1.40;;
82288;SDS011;71889;39.264;-120.910;2024-02-26T00:45:22;2.63;;;1.42;;
82288;SDS011;71889;39.264;-120.910;2024-02-26T00:48:09;2.88;;;1.25;;
82288;SDS011;71889;39.264;-120.910;2024-02-26T00:50:56;3.00;;;1.30;;
82288;SDS011;71889;39.264;-120.910;2024-02-26T00:53:43;2.05;;;1.33;;
82288;SDS011;71889;39.264;-120.910;2024-02-26T00:56:30;2.67;;;1.42;;
82288;SDS011;71889;39.264;-120.910;2024-02-26T00:59:17;2.30;;;1.10;;
82288;SDS011;71889;39.264;-120.910;2024-02-26T01:02:04;3.20;;;1.40;;
82288;SDS011;71889;39.264;-120.910;2024-02-26T01:04:52;2.15;;;1.40;;
82288;SDS011;71889;39.264;-120.910;2024-02-26T01:07:39;2.50;;;1.10;;
82288;SDS011;71889;39.264;-120.910;2024-02-26T01:10:26;2.40;;;1.30;;
82288;SDS011;71889;39.264;-120.910;2024-02-26T01:13:13;3.85;;;2.17;;
82288;SDS011;71889;39.264;-120.910;2024-02-26T01:16:00;4.60;;;2.20;;
82288;SDS011;71889;39.264;-120.910;2024-02-26T01:18:47;5.00;;;2.47;;
82288;SDS011;71889;39.264;-120.910;2024-02-26T01:21:34;5.03;;;2.42;;
82288;SDS011;71889;39.264;-120.910;2024-02-26T01:24:21;4.20;;;2.30;;
82288;SDS011;71889;39.264;-120.910;2024-02-26T01:27:08;5.60;;;2.47;;
82288;SDS011;71889;39.264;-120.910;2024-02-26T01:29:55;7.47;;;3.25;;
82288;SDS011;71889;39.264;-120.910;2024-02-26T01:32:42;4.63;;;2.00;;
82288;SDS011;71889;39.264;-120.910;2024-02-26T01:35:29;6.05;;;2.47;;
82288;SDS011;71889;39.264;-120.910;2024-02-26T01:38:16;3.35;;;2.05;;
82288;SDS011;71889;39.264;-120.910;2024-02-26T01:41:03;3.25;;;2.10;;
82288;SDS011;71889;39.264;-120.910;2024-02-26T01:43:52;4.40;;;2.03;;
82288;SDS011;71889;39.264;-120.910;2024-02-26T01:46:39;3.80;;;1.98;;
82288;SDS011;71889;39.264;-120.910;2024-02-26T01:49:26;3.55;;;2.33;;
82288;SDS011;71889;39.264;-120.910;2024-02-26T01:52:13;7.47;;;3.75;;
82288;SDS011;71889;39.264;-120.910;2024-02-26T01:55:00;9.13;;;4.88;;
82288;SDS011;71889;39.264;-120.910;2024-02-26T01:57:48;8.75;;;4.85;;
82288;SDS011;71889;39.264;-120.910;2024-02-26T02:00:37;6.25;;;4.47;;
82288;SDS011;71889;39.264;-120.910;2024-02-26T02:03:24;6.32;;;4.20;;
82288;SDS011;71889;39.264;-120.910;2024-02-26T02:06:11;8.15;;;4.00;;
82288;SDS011;71889;39.264;-120.910;2024-02-26T02:08:59;6.70;;;3.78;;
82288;SDS011;71889;39.264;-120.910;2024-02-26T02:11:51;6.25;;;3.20;;
82288;SDS011;71889;39.264;-120.910;2024-02-26T02:14:39;15.35;;;7.80;;
82288;SDS011;71889;39.264;-120.910;2024-02-26T02:17:26;11.25;;;5.80;;
82288;SDS011;71889;39.264;-120.910;2024-02-26T02:20:17;10.23;;;5.57;;
82288;SDS011;71889;39.264;-120.910;2024-02-26T02:23:04;9.52;;;5.57;;
82288;SDS011;71889;39.264;-120.910;2024-02-26T02:25:52;12.40;;;5.40;;
82288;SDS011;71889;39.264;-120.910;2024-02-26T02:28:40;8.43;;;4.88;;
82288;SDS011;71889;39.264;-120.910;2024-02-26T02:31:28;8.43;;;4.03;;
82288;SDS011;71889;39.264;-120.910;2024-02-26T02:34:15;9.23;;;4.63;;
82288;SDS011;71889;39.264;-120.910;2024-02-26T02:37:02;8.40;;;4.18;;
82288;SDS011;71889;39.264;-120.910;2024-02-26T02:39:49;10.27;;;5.78;;
82288;SDS011;71889;39.264;-120.910;2024-02-26T02:42:36;12.93;;;7.03;;
82288;SDS011;71889;39.264;-120.910;2024-02-26T02:45:23;27.55;;;13.43;;
82288;SDS011;71889;39.264;-120.910;2024-02-26T02:48:13;19.92;;;10.48;;
82288;SDS011;71889;39.264;-120.910;2024-02-26T02:51:00;21.17;;;11.15;;
82288;SDS011;71889;39.264;-120.910;2024-02-26T02:53:46;21.75;;;11.00;;
82288;SDS011;71889;39.264;-120.910;2024-02-26T02:56:33;18.75;;;8.85;;
82288;SDS011;71889;39.264;-120.910;2024-02-26T02:59:21;17.90;;;8.65;;
82288;SDS011;71889;39.264;-120.910;2024-02-26T03:02:08;13.13;;;7.07;;
82288;SDS011;71889;39.264;-120.910;2024-02-26T03:04:55;12.32;;;6.63;;
82288;SDS011;71889;39.264;-120.910;2024-02-26T03:07:42;16.35;;;6.57;;
82288;SDS011;71889;39.264;-120.910;2024-02-26T03:10:29;15.90;;;7.22;;
82288;SDS011;71889;39.264;-120.910;2024-02-26T03:13:16;11.68;;;6.40;;
82288;SDS011;71889;39.264;-120.910;2024-02-26T03:16:06;14.10;;;7.05;;
82288;SDS011;71889;39.264;-120.910;2024-02-26T03:18:53;8.85;;;5.60;;
82288;SDS011;71889;39.264;-120.910;2024-02-26T03:21:40;7.03;;;3.97;;
82288;SDS011;71889;39.264;-120.910;2024-02-26T03:24:27;11.35;;;5.97;;
82288;SDS011;71889;39.264;-120.910;2024-02-26T03:27:14;7.72;;;4.47;;
82288;SDS011;71889;39.264;-120.910;2024-02-26T03:30:02;7.93;;;4.47;;
82288;SDS011;71889;39.264;-120.910;2024-02-26T03:35:36;5.85;;;2.83;;
82288;SDS011;71889;39.264;-120.910;2024-02-26T03:38:22;5.95;;;2.20;;
82288;SDS011;71889;39.264;-120.910;2024-02-26T03:41:09;6.47;;;2.67;;
82288;SDS011;71889;39.264;-120.910;2024-02-26T03:43:56;4.60;;;2.58;;
82288;SDS011;71889;39.264;-120.910;2024-02-26T03:46:43;5.85;;;2.35;;
82288;SDS011;71889;39.264;-120.910;2024-02-26T03:49:30;6.35;;;2.70;;
82288;SDS011;71889;39.264;-120.910;2024-02-26T03:52:17;7.22;;;3.63;;
82288;SDS011;71889;39.264;-120.910;2024-02-26T03:55:04;7.05;;;3.60;;
82288;SDS011;71889;39.264;-120.910;2024-02-26T03:57:52;21.50;;;11.93;;
82288;SDS011;71889;39.264;-120.910;2024-02-26T04:00:39;26.30;;;13.38;;
82288;SDS011;71889;39.264;-120.910;2024-02-26T04:03:26;18.40;;;10.02;;
82288;SDS011;71889;39.264;-120.910;2024-02-26T04:06:12;12.38;;;6.82;;
82288;SDS011;71889;39.264;-120.910;2024-02-26T04:09:06;11.45;;;7.38;;
82288;SDS011;71889;39.264;-120.910;2024-02-26T04:11:55;8.13;;;4.13;;
82288;SDS011;71889;39.264;-120.910;2024-02-26T04:14:42;5.50;;;2.60;;
82288;SDS011;71889;39.264;-120.910;2024-02-26T04:17:29;5.97;;;3.33;;
82288;SDS011;71889;39.264;-120.910;2024-02-26T04:20:16;7.78;;;3.50;;
82288;SDS011;71889;39.264;-120.910;2024-02-26T04:23:03;4.53;;;2.92;;
82288;SDS011;71889;39.264;-120.910;2024-02-26T04:25:50;6.20;;;3.03;;
82288;SDS011;71889;39.264;-120.910;2024-02-26T04:28:39;5.03;;;2.72;;
82288;SDS011;71889;39.264;-120.910;2024-02-26T04:31:26;5.90;;;2.97;;
82288;SDS011;71889;39.264;-120.910;2024-02-26T04:34:13;3.58;;;2.15;;
82288;SDS011;71889;39.264;-120.910;2024-02-26T04:37:00;6.32;;;2.95;;
82288;SDS011;71889;39.264;-120.910;2024-02-26T04:39:47;4.63;;;3.00;;
82288;SDS011;71889;39.264;-120.910;2024-02-26T04:42:34;7.63;;;3.85;;
82288;SDS011;71889;39.264;-120.910;2024-02-26T04:45:20;17.73;;;9.35;;
82288;SDS011;71889;39.264;-120.910;2024-02-26T04:48:07;28.70;;;15.63;;
82288;SDS011;71889;39.264;-120.910;2024-02-26T04:50:54;23.75;;;13.20;;
82288;SDS011;71889;39.264;-120.910;2024-02-26T04:53:41;28.52;;;16.85;;
82288;SDS011;71889;39.264;-120.910;2024-02-26T04:56:28;18.80;;;12.07;;
82288;SDS011;71889;39.264;-120.910;2024-02-26T04:59:15;15.20;;;9.98;;
82288;SDS011;71889;39.264;-120.910;2024-02-26T05:02:03;23.38;;;10.48;;
82288;SDS011;71889;39.264;-120.910;2024-02-26T05:04:50;17.63;;;7.45;;
82288;SDS011;71889;39.264;-120.910;2024-02-26T05:07:40;8.70;;;4.43;;
82288;SDS011;71889;39.264;-120.910;2024-02-26T05:10:30;8.25;;;4.45;;
82288;SDS011;71889;39.264;-120.910;2024-02-26T05:13:17;9.85;;;4.53;;
82288;SDS011;71889;39.264;-120.910;2024-02-26T05:16:04;9.70;;;4.50;;
82288;SDS011;71889;39.264;-120.910;2024-02-26T05:18:51;8.35;;;3.90;;
82288;SDS011;71889;39.264;-120.910;2024-02-26T05:21:38;6.85;;;3.92;;
82288;SDS011;71889;39.264;-120.910;2024-02-26T05:24:25;6.80;;;3.90;;
82288;SDS011;71889;39.264;-120.910;2024-02-26T05:27:12;10.07;;;5.85;;
82288;SDS011;71889;39.264;-120.910;2024-02-26T05:29:59;9.70;;;4.82;;
82288;SDS011;71889;39.264;-120.910;2024-02-26T05:32:46;18.10;;;9.55;;
82288;SDS011;71889;39.264;-120.910;2024-02-26T05:35:33;14.48;;;7.50;;
82288;SDS011;71889;39.264;-120.910;2024-02-26T05:38:20;20.25;;;10.27;;
82288;SDS011;71889;39.264;-120.910;2024-02-26T05:41:07;24.27;;;11.65;;
82288;SDS011;71889;39.264;-120.910;2024-02-26T05:43:54;18.77;;;9.90;;
82288;SDS011;71889;39.264;-120.910;2024-02-26T05:46:41;17.35;;;9.45;;
82288;SDS011;71889;39.264;-120.910;2024-02-26T05:49:28;17.10;;;9.45;;
82288;SDS011;71889;39.264;-120.910;2024-02-26T05:52:15;15.07;;;8.38;;
82288;SDS011;71889;39.264;-120.910;2024-02-26T05:55:02;13.77;;;8.13;;
82288;SDS011;71889;39.264;-120.910;2024-02-26T05:57:49;14.55;;;9.65;;
82288;SDS011;71889;39.264;-120.910;2024-02-26T06:00:36;30.73;;;19.58;;
82288;SDS011;71889;39.264;-120.910;2024-02-26T06:03:23;19.85;;;12.45;;
82288;SDS011;71889;39.264;-120.910;2024-02-26T06:06:11;14.27;;;8.60;;
82288;SDS011;71889;39.264;-120.910;2024-02-26T06:08:58;15.27;;;8.43;;
82288;SDS011;71889;39.264;-120.910;2024-02-26T06:11:45;15.13;;;7.97;;
82288;SDS011;71889;39.264;-120.910;2024-02-26T06:14:32;14.23;;;8.90;;
82288;SDS011;71889;39.264;-120.910;2024-02-26T06:17:19;12.35;;;7.20;;
82288;SDS011;71889;39.264;-120.910;2024-02-26T06:20:06;14.20;;;7.93;;
82288;SDS011;71889;39.264;-120.910;2024-02-26T06:22:57;11.40;;;7.07;;
82288;SDS011;71889;39.264;-120.910;2024-02-26T06:25:44;8.65;;;5.65;;
82288;SDS011;71889;39.264;-120.910;2024-02-26T06:28:33;13.00;;;6.53;;
82288;SDS011;71889;39.264;-120.910;2024-02-26T06:31:21;9.68;;;6.45;;
82288;SDS011;71889;39.264;-120.910;2024-02-26T06:34:08;10.63;;;5.05;;
82288;SDS011;71889;39.264;-120.910;2024-02-26T06:36:55;8.95;;;5.28;;
82288;SDS011;71889;39.264;-120.910;2024-02-26T06:39:42;8.80;;;5.57;;
82288;SDS011;71889;39.264;-120.910;2024-02-26T06:42:29;9.90;;;6.20;;
82288;SDS011;71889;39.264;-120.910;2024-02-26T06:45:17;11.70;;;6.70;;
82288;SDS011;71889;39.264;-120.910;2024-02-26T06:48:05;8.25;;;4.60;;
82288;SDS011;71889;39.264;-120.910;2024-02-26T06:50:52;8.10;;;5.28;;
82288;SDS011;71889;39.264;-120.910;2024-02-26T06:53:39;9.02;;;4.82;;
82288;SDS011;71889;39.264;-120.910;2024-02-26T06:56:26;10.07;;;5.28;;
82288;SDS011;71889;39.264;-120.910;2024-02-26T06:59:14;8.50;;;4.95;;
82288;SDS011;71889;39.264;-120.910;2024-02-26T07:02:01;9.88;;;5.25;;
82288;SDS011;71889;39.264;-120.910;2024-02-26T07:04:47;8.73;;;4.90;;
82288;SDS011;71889;39.264;-120.910;2024-02-26T07:07:34;9.95;;;4.50;;
82288;SDS011;71889;39.264;-120.910;2024-02-26T07:10:21;9.18;;;5.15;;
82288;SDS011;71889;39.264;-120.910;2024-02-26T07:13:09;10.95;;;4.68;;
82288;SDS011;71889;39.264;-120.910;2024-02-26T07:15:56;13.70;;;5.72;;
82288;SDS011;71889;39.264;-120.910;2024-02-26T07:18:43;12.52;;;5.93;;
82288;SDS011;71889;39.264;-120.910;2024-02-26T07:21:30;11.30;;;5.90;;
82288;SDS011;71889;39.264;-120.910;2024-02-26T07:24:17;12.02;;;5.07;;
82288;SDS011;71889;39.264;-120.910;2024-02-26T07:27:04;8.02;;;4.28;;
82288;SDS011;71889;39.264;-120.910;2024-02-26T07:29:51;9.18;;;4.05;;
82288;SDS011;71889;39.264;-120.910;2024-02-26T07:32:38;7.55;;;3.90;;
82288;SDS011;71889;39.264;-120.910;2024-02-26T07:35:25;5.75;;;3.22;;
82288;SDS011;71889;39.264;-120.910;2024-02-26T07:38:13;5.28;;;3.00;;
82288;SDS011;71889;39.264;-120.910;2024-02-26T07:41:04;6.30;;;3.65;;
82288;SDS011;71889;39.264;-120.910;2024-02-26T07:43:51;6.20;;;3.13;;
82288;SDS011;71889;39.264;-120.910;2024-02-26T07:46:38;6.47;;;3.45;;
82288;SDS011;71889;39.264;-120.910;2024-02-26T07:49:25;11.13;;;4.15;;
82288;SDS011;71889;39.264;-120.910;2024-02-26T07:52:12;16.27;;;9.10;;
82288;SDS011;71889;39.264;-120.910;2024-02-26T07:54:59;18.27;;;10.18;;
82288;SDS011;71889;39.264;-120.910;2024-02-26T07:57:46;15.65;;;10.45;;
82288;SDS011;71889;39.264;-120.910;2024-02-26T08:00:33;18.58;;;9.98;;
82288;SDS011;71889;39.264;-120.910;2024-02-26T08:03:20;15.27;;;9.23;;
82288;SDS011;71889;39.264;-120.910;2024-02-26T08:06:08;19.20;;;9.68;;
82288;SDS011;71889;39.264;-120.910;2024-02-26T08:08:54;18.23;;;8.00;;
82288;SDS011;71889;39.264;-120.910;2024-02-26T08:11:41;29.42;;;14.25;;
82288;SDS011;71889;39.264;-120.910;2024-02-26T08:14:28;23.23;;;11.88;;
82288;SDS011;71889;39.264;-120.910;2024-02-26T08:17:15;15.15;;;7.85;;
82288;SDS011;71889;39.264;-120.910;2024-02-26T08:20:02;26.58;;;12.50;;
82288;SDS011;71889;39.264;-120.910;2024-02-26T08:22:49;25.67;;;11.90;;
82288;SDS011;71889;39.264;-120.910;2024-02-26T08:25:36;45.72;;;19.25;;
82288;SDS011;71889;39.264;-120.910;2024-02-26T08:28:23;26.08;;;13.63;;
82288;SDS011;71889;39.264;-120.910;2024-02-26T08:31:10;26.98;;;11.68;;
82288;SDS011;71889;39.264;-120.910;2024-02-26T08:33:57;21.67;;;9.63;;
82288;SDS011;71889;39.264;-120.910;2024-02-26T08:36:44;17.70;;;9.20;;
82288;SDS011;71889;39.264;-120.910;2024-02-26T08:39:31;19.65;;;9.98;;
82288;SDS011;71889;39.264;-120.910;2024-02-26T08:42:18;20.80;;;10.38;;
82288;SDS011;71889;39.264;-120.910;2024-02-26T08:45:05;18.40;;;9.73;;
82288;SDS011;71889;39.264;-120.910;2024-02-26T08:47:52;14.82;;;7.45;;
82288;SDS011;71889;39.264;-120.910;2024-02-26T08:50:39;15.40;;;8.18;;
82288;SDS011;71889;39.264;-120.910;2024-02-26T08:53:26;16.13;;;8.15;;
82288;SDS011;71889;39.264;-120.910;2024-02-26T08:56:13;16.02;;;8.32;;
82288;SDS011;71889;39.264;-120.910;2024-02-26T08:59:02;14.52;;;8.43;;
82288;SDS011;71889;39.264;-120.910;2024-02-26T09:01:49;18.02;;;9.77;;
82288;SDS011;71889;39.264;-120.910;2024-02-26T09:04:36;18.58;;;9.20;;
82288;SDS011;71889;39.264;-120.910;2024-02-26T09:07:23;20.20;;;9.73;;
82288;SDS011;71889;39.264;-120.910;2024-02-26T09:10:10;21.35;;;10.57;;
82288;SDS011;71889;39.264;-120.910;2024-02-26T09:12:57;25.52;;;14.40;;
82288;SDS011;71889;39.264;-120.910;2024-02-26T09:15:44;23.73;;;12.45;;
82288;SDS011;71889;39.264;-120.910;2024-02-26T09:18:31;17.58;;;9.73;;
82288;SDS011;71889;39.264;-120.910;2024-02-26T09:21:18;18.98;;;10.13;;
82288;SDS011;71889;39.264;-120.910;2024-02-26T09:24:09;12.77;;;8.45;;
82288;SDS011;71889;39.264;-120.910;2024-02-26T09:26:56;13.20;;;8.45;;
82288;SDS011;71889;39.264;-120.910;2024-02-26T09:29:43;15.48;;;8.20;;
82288;SDS011;71889;39.264;-120.910;2024-02-26T09:32:30;15.27;;;8.50;;
82288;SDS011;71889;39.264;-120.910;2024-02-26T09:35:17;25.42;;;12.95;;
82288;SDS011;71889;39.264;-120.910;2024-02-26T09:38:04;17.40;;;9.38;;
82288;SDS011;71889;39.264;-120.910;2024-02-26T09:40:51;32.72;;;13.68;;
82288;SDS011;71889;39.264;-120.910;2024-02-26T09:43:38;17.08;;;8.35;;
82288;SDS011;71889;39.264;-120.910;2024-02-26T09:46:27;9.38;;;4.35;;
82288;SDS011;71889;39.264;-120.910;2024-02-26T09:49:15;23.85;;;9.25;;
82288;SDS011;71889;39.264;-120.910;2024-02-26T09:52:03;12.00;;;5.05;;
82288;SDS011;71889;39.264;-120.910;2024-02-26T09:54:51;6.80;;;3.03;;
82288;SDS011;71889;39.264;-120.910;2024-02-26T09:57:38;6.10;;;2.70;;
82288;SDS011;71889;39.264;-120.910;2024-02-26T10:03:14;21.13;;;6.07;;
82288;SDS011;71889;39.264;-120.910;2024-02-26T10:06:02;26.15;;;7.70;;
82288;SDS011;71889;39.264;-120.910;2024-02-26T10:08:51;21.52;;;7.07;;
82288;SDS011;71889;39.264;-120.910;2024-02-26T10:11:38;29.27;;;7.97;;
82288;SDS011;71889;39.264;-120.910;2024-02-26T10:14:28;15.73;;;5.38;;
82288;SDS011;71889;39.264;-120.910;2024-02-26T10:17:15;14.00;;;5.38;;
82288;SDS011;71889;39.264;-120.910;2024-02-26T10:20:18;4.35;;;1.98;;
82288;SDS011;71889;39.264;-120.910;2024-02-26T10:23:07;3.20;;;1.42;;
82288;SDS011;71889;39.264;-120.910;2024-02-26T10:25:54;3.40;;;1.80;;
82288;SDS011;71889;39.264;-120.910;2024-02-26T10:28:41;3.55;;;1.80;;
82288;SDS011;71889;39.264;-120.910;2024-02-26T10:31:28;2.30;;;1.35;;
82288;SDS011;71889;39.264;-120.910;2024-02-26T10:34:15;6.68;;;1.77;;
82288;SDS011;71889;39.264;-120.910;2024-02-26T10:37:03;9.98;;;3.88;;
82288;SDS011;71889;39.264;-120.910;2024-02-26T10:39:50;20.40;;;7.57;;
82288;SDS011;71889;39.264;-120.910;2024-02-26T10:42:37;21.27;;;7.60;;
82288;SDS011;71889;39.264;-120.910;2024-02-26T10:45:24;5.25;;;1.67;;
82288;SDS011;71889;39.264;-120.910;2024-02-26T10:48:14;10.95;;;3.58;;
82288;SDS011;71889;39.264;-120.910;2024-02-26T10:51:02;7.03;;;1.98;;
82288;SDS011;71889;39.264;-120.910;2024-02-26T10:53:49;12.57;;;3.20;;
82288;SDS011;71889;39.264;-120.910;2024-02-26T10:56:39;15.88;;;4.45;;
82288;SDS011;71889;39.264;-120.910;2024-02-26T10:59:29;18.55;;;5.00;;
82288;SDS011;71889;39.264;-120.910;2024-02-26T11:02:17;2.33;;;1.40;;
82288;SDS011;71889;39.264;-120.910;2024-02-26T11:05:04;15.63;;;5.45;;
82288;SDS011;71889;39.264;-120.910;2024-02-26T11:07:52;8.00;;;2.92;;
82288;SDS011;71889;39.264;-120.910;2024-02-26T11:10:39;30.17;;;7.88;;
82288;SDS011;71889;39.264;-120.910;2024-02-26T11:13:27;7.88;;;3.03;;
82288;SDS011;71889;39.264;-120.910;2024-02-26T11:16:18;9.20;;;2.88;;
82288;SDS011;71889;39.264;-120.910;2024-02-26T11:19:06;17.98;;;6.93;;
82288;SDS011;71889;39.264;-120.910;2024-02-26T11:21:53;17.40;;;8.05;;
82288;SDS011;71889;39.264;-120.910;2024-02-26T11:24:40;7.95;;;4.13;;
82288;SDS011;71889;39.264;-120.910;2024-02-26T11:27:32;5.53;;;3.00;;
82288;SDS011;71889;39.264;-120.910;2024-02-26T11:30:22;2.65;;;1.30;;
82288;SDS011;71889;39.264;-120.910;2024-02-26T11:33:09;2.47;;;1.08;;
82288;SDS011;71889;39.264;-120.910;2024-02-26T11:35:58;3.38;;;0.80;;
82288;SDS011;71889;39.264;-120.910;2024-02-26T11:38:45;2.25;;;0.93;;
82288;SDS011;71889;39.264;-120.910;2024-02-26T11:41:37;1.20;;;0.60;;
82288;SDS011;71889;39.264;-120.910;2024-02-26T11:44:30;1.58;;;0.77;;
82288;SDS011;71889;39.264;-120.910;2024-02-26T11:47:18;4.78;;;0.85;;
82288;SDS011;71889;39.264;-120.910;2024-02-26T11:56:27;1.58;;;0.60;;
82288;SDS011;71889;39.264;-120.910;2024-02-26T11:59:36;1.30;;;0.60;;
82288;SDS011;71889;39.264;-120.910;2024-02-26T12:05:32;2.08;;;1.05;;
82288;SDS011;71889;39.264;-120.910;2024-02-26T12:08:20;0.95;;;0.50;;
82288;SDS011;71889;39.264;-120.910;2024-02-26T12:11:17;1.60;;;0.60;;
82288;SDS011;71889;39.264;-120.910;2024-02-26T12:14:05;1.10;;;0.60;;
82288;SDS011;71889;39.264;-120.910;2024-02-26T12:16:52;1.65;;;0.52;;
82288;SDS011;71889;39.264;-120.910;2024-02-26T12:19:39;1.48;;;0.82;;
82288;SDS011;71889;39.264;-120.910;2024-02-26T12:22:26;1.35;;;0.50;;
82288;SDS011;71889;39.264;-120.910;2024-02-26T12:25:13;1.42;;;0.50;;
82288;SDS011;71889;39.264;-120.910;2024-02-26T12:28:00;1.05;;;0.73;;
82288;SDS011;71889;39.264;-120.910;2024-02-26T12:30:47;2.15;;;1.02;;
82288;SDS011;71889;39.264;-120.910;2024-02-26T12:33:34;2.45;;;1.27;;
82288;SDS011;71889;39.264;-120.910;2024-02-26T12:36:21;3.72;;;1.05;;
82288;SDS011;71889;39.264;-120.910;2024-02-26T12:39:11;3.10;;;1.50;;
82288;SDS011;71889;39.264;-120.910;2024-02-26T12:41:58;5.90;;;2.00;;
82288;SDS011;71889;39.264;-120.910;2024-02-26T12:44:46;3.33;;;1.50;;
82288;SDS011;71889;39.264;-120.910;2024-02-26T12:47:33;7.45;;;3.42;;
82288;SDS011;71889;39.264;-120.910;2024-02-26T12:50:21;9.05;;;4.00;;
82288;SDS011;71889;39.264;-120.910;2024-02-26T12:53:08;12.57;;;4.97;;
82288;SDS011;71889;39.264;-120.910;2024-02-26T12:55:55;12.30;;;4.68;;
82288;SDS011;71889;39.264;-120.910;2024-02-26T12:58:42;13.38;;;4.55;;
82288;SDS011;71889;39.264;-120.910;2024-02-26T13:01:29;17.27;;;6.35;;
82288;SDS011;71889;39.264;-120.910;2024-02-26T13:04:16;17.42;;;6.93;;
82288;SDS011;71889;39.264;-120.910;2024-02-26T13:07:03;19.63;;;7.07;;
82288;SDS011;71889;39.264;-120.910;2024-02-26T13:09:51;17.98;;;6.93;;
82288;SDS011;71889;39.264;-120.910;2024-02-26T13:12:44;13.90;;;5.22;;
82288;SDS011;71889;39.264;-120.910;2024-02-26T13:15:31;13.48;;;4.15;;
82288;SDS011;71889;39.264;-120.910;2024-02-26T13:18:18;11.90;;;3.70;;
82288;SDS011;71889;39.264;-120.910;2024-02-26T13:23:56;5.10;;;2.00;;
82288;SDS011;71889;39.264;-120.910;2024-02-26T13:26:42;5.93;;;2.25;;
82288;SDS011;71889;39.264;-120.910;2024-02-26T13:29:29;4.60;;;1.60;;
82288;SDS011;71889;39.264;-120.910;2024-02-26T13:32:16;3.50;;;1.45;;
82288;SDS011;71889;39.264;-120.910;2024-02-26T13:35:10;3.45;;;1.50;;
82288;SDS011;71889;39.264;-120.910;2024-02-26T13:37:57;3.60;;;1.50;;
82288;SDS011;71889;39.264;-120.910;2024-02-26T13:40:44;5.25;;;1.10;;
82288;SDS011;71889;39.264;-120.910;2024-02-26T13:43:31;2.33;;;1.15;;
82288;SDS011;71889;39.264;-120.910;2024-02-26T13:46:19;2.90;;;1.00;;
82288;SDS011;71889;39.264;-120.910;2024-02-26T13:49:08;2.55;;;0.70;;
82288;SDS011;71889;39.264;-120.910;2024-02-26T13:51:56;1.17;;;0.60;;
82288;SDS011;71889;39.264;-120.910;2024-02-26T13:54:43;1.27;;;0.50;;
82288;SDS011;71889;39.264;-120.910;2024-02-26T13:57:30;2.05;;;0.50;;
82288;SDS011;71889;39.264;-120.910;2024-02-26T14:00:17;1.05;;;0.60;;
82288;SDS011;71889;39.264;-120.910;2024-02-26T14:03:04;1.50;;;0.28;;
82288;SDS011;71889;39.264;-120.910;2024-02-26T14:05:51;0.95;;;0.50;;
82288;SDS011;71889;39.264;-120.910;2024-02-26T14:08:38;1.92;;;0.63;;
82288;SDS011;71889;39.264;-120.910;2024-02-26T14:11:25;5.95;;;3.00;;
82288;SDS011;71889;39.264;-120.910;2024-02-26T14:14:14;6.65;;;3.47;;
82288;SDS011;71889;39.264;-120.910;2024-02-26T14:17:01;5.07;;;2.40;;
82288;SDS011;71889;39.264;-120.910;2024-02-26T14:19:49;4.78;;;2.60;;
82288;SDS011;71889;39.264;-120.910;2024-02-26T14:22:36;2.75;;;1.17;;
82288;SDS011;71889;39.264;-120.910;2024-02-26T14:25:23;2.15;;;1.17;;
82288;SDS011;71889;39.264;-120.910;2024-02-26T14:28:10;0.82;;;0.43;;
82288;SDS011;71889;39.264;-120.910;2024-02-26T14:30:57;1.58;;;0.50;;
82288;SDS011;71889;39.264;-120.910;2024-02-26T14:33:44;2.05;;;0.70;;
82288;SDS011;71889;39.264;-120.910;2024-02-26T14:36:31;10.38;;;3.78;;
82288;SDS011;71889;39.264;-120.910;2024-02-26T14:39:18;10.98;;;3.72;;
82288;SDS011;71889;39.264;-120.910;2024-02-26T14:42:06;11.15;;;4.05;;
82288;SDS011;71889;39.264;-120.910;2024-02-26T14:44:53;6.68;;;3.30;;
82288;SDS011;71889;39.264;-120.910;2024-02-26T14:47:40;6.32;;;2.47;;
82288;SDS011;71889;39.264;-120.910;2024-02-26T14:50:26;7.80;;;2.95;;
82288;SDS011;71889;39.264;-120.910;2024-02-26T14:53:15;4.70;;;1.90;;
82288;SDS011;71889;39.264;-120.910;2024-02-26T14:56:02;2.17;;;1.00;;
82288;SDS011;71889;39.264;-120.910;2024-02-26T14:58:48;3.67;;;0.90;;
82288;SDS011;71889;39.264;-120.910;2024-02-26T15:01:35;2.70;;;1.20;;
82288;SDS011;71889;39.264;-120.910;2024-02-26T15:04:22;6.55;;;2.88;;
82288;SDS011;71889;39.264;-120.910;2024-02-26T15:07:09;10.63;;;4.20;;
82288;SDS011;71889;39.264;-120.910;2024-02-26T15:09:56;11.40;;;3.95;;
82288;SDS011;71889;39.264;-120.910;2024-02-26T15:12:45;8.15;;;3.83;;
82288;SDS011;71889;39.264;-120.910;2024-02-26T15:15:32;9.57;;;4.60;;
82288;SDS011;71889;39.264;-120.910;2024-02-26T15:18:19;16.65;;;6.60;;
82288;SDS011;71889;39.264;-120.910;2024-02-26T15:21:06;14.70;;;7.13;;
82288;SDS011;71889;39.264;-120.910;2024-02-26T15:23:53;17.77;;;6.90;;
82288;SDS011;71889;39.264;-120.910;2024-02-26T15:26:40;14.43;;;5.13;;
82288;SDS011;71889;39.264;-120.910;2024-02-26T15:29:27;2.20;;;1.05;;
82288;SDS011;71889;39.264;-120.910;2024-02-26T15:32:14;3.28;;;1.00;;
82288;SDS011;71889;39.264;-120.910;2024-02-26T15:35:01;2.13;;;0.88;;
82288;SDS011;71889;39.264;-120.910;2024-02-26T15:37:48;4.45;;;1.13;;
82288;SDS011;71889;39.264;-120.910;2024-02-26T15:40:35;3.08;;;0.70;;
82288;SDS011;71889;39.264;-120.910;2024-02-26T15:43:22;0.75;;;0.32;;
82288;SDS011;71889;39.264;-120.910;2024-02-26T15:46:09;1.02;;;0.47;;
82288;SDS011;71889;39.264;-120.910;2024-02-26T15:48:56;1.90;;;0.65;;
82288;SDS011;71889;39.264;-120.910;2024-02-26T15:51:43;1.13;;;0.50;;
82288;SDS011;71889;39.264;-120.910;2024-02-26T15:54:30;1.00;;;0.63;;
82288;SDS011;71889;39.264;-120.910;2024-02-26T15:57:17;1.00;;;0.47;;
82288;SDS011;71889;39.264;-120.910;2024-02-26T16:00:05;3.00;;;0.60;;
82288;SDS011;71889;39.264;-120.910;2024-02-26T16:02:55;2.70;;;0.77;;
82288;SDS011;71889;39.264;-120.910;2024-02-26T16:05:42;0.73;;;0.52;;
82288;SDS011;71889;39.264;-120.910;2024-02-26T16:08:29;1.25;;;0.52;;
82288;SDS011;71889;39.264;-120.910;2024-02-26T16:11:16;3.08;;;1.27;;
82288;SDS011;71889;39.264;-120.910;2024-02-26T16:17:11;0.70;;;0.40;;
82288;SDS011;71889;39.264;-120.910;2024-02-26T16:20:00;0.77;;;0.47;;